Time;durP1;ratioP1;P1;durP2;ratioP2;P2;SDS_P1;SDS_P2;PMS_P1;PMS_P2;Temp;Humidity;BMP_temperature;BMP_pressure;BME280_temperature;BME280_humidity;BME280_pressure;Samples;Min_cycle;Max_cycle;Signal;HPM_P1;HPM_P2
2023/12/04 08:51:45;;;;;;;2.50;1.23;;;4.00;99.90;;;;;;4064024;23;20234;-76
2023/12/04 08:54:11;;;;;;;2.17;1.13;;;4.00;99.90;;;;;;4897350;29;20252;-71
2023/12/04 08:56:38;;;;;;;1.77;1.20;;;4.00;99.90;;;;;;4897408;29;20297;-73
2023/12/04 08:59:06;;;;;;;2.43;1.50;;;4.10;99.90;;;;;;4897949;29;20262;-72
2023/12/04 09:01:33;;;;;;;2.30;0.93;;;4.00;99.90;;;;;;4897864;29;20784;-70
2023/12/04 09:04:00;;;;;;;2.43;1.10;;;4.00;99.90;;;;;;4898176;29;20254;-71
2023/12/04 09:06:26;;;;;;;2.40;1.10;;;4.10;99.90;;;;;;4893141;29;20295;-87
2023/12/04 09:08:55;;;;;;;1.30;1.00;;;4.20;99.90;;;;;;4897662;29;20314;-72
2023/12/04 09:11:22;;;;;;;1.70;1.07;;;4.00;99.90;;;;;;4897539;29;20571;-70
2023/12/04 09:13:49;;;;;;;2.10;1.03;;;4.00;99.90;;;;;;4915606;29;20237;-74
2023/12/04 09:16:15;;;;;;;3.50;0.97;;;4.00;99.90;;;;;;4908041;29;20632;-74
2023/12/04 09:18:42;;;;;;;2.30;1.10;;;3.90;99.90;;;;;;4897560;29;20264;-73
2023/12/04 09:21:09;;;;;;;1.30;0.70;;;4.00;99.90;;;;;;4897846;29;20318;-70
2023/12/04 09:23:36;;;;;;;1.47;0.77;;;3.90;99.90;;;;;;4897483;29;20376;-72
2023/12/04 09:26:05;;;;;;;3.73;1.03;;;3.90;99.90;;;;;;4909526;29;20293;-74
2023/12/04 09:28:32;;;;;;;1.70;1.10;;;4.00;99.90;;;;;;4897142;29;20773;-71
2023/12/04 09:30:59;;;;;;;2.53;0.93;;;4.10;99.90;;;;;;4897607;29;20230;-71
2023/12/04 09:33:26;;;;;;;2.63;1.10;;;4.10;99.90;;;;;;4897402;29;20292;-71
2023/12/04 09:35:53;;;;;;;2.30;1.00;;;4.10;99.90;;;;;;4896787;29;20222;-71
2023/12/04 09:38:20;;;;;;;2.27;0.73;;;4.10;99.90;;;;;;4897408;29;20317;-72
2023/12/04 09:40:47;;;;;;;1.93;1.00;;;4.00;99.90;;;;;;4897259;29;20321;-75
2023/12/04 09:43:15;;;;;;;2.80;1.37;;;3.90;99.90;;;;;;4897155;29;20745;-72
2023/12/04 09:45:43;;;;;;;2.00;1.47;;;3.90;99.90;;;;;;4897225;29;20298;-72
2023/12/04 09:48:10;;;;;;;2.37;1.00;;;3.80;99.90;;;;;;4897450;29;20230;-72
2023/12/04 09:50:38;;;;;;;3.03;1.53;;;3.90;99.90;;;;;;4897436;29;20216;-72
2023/12/04 09:53:11;;;;;;;3.10;1.73;;;3.90;99.90;;;;;;4897127;29;20237;-72
2023/12/04 09:55:38;;;;;;;2.53;1.23;;;3.80;99.90;;;;;;4896691;29;20220;-71
2023/12/04 09:58:05;;;;;;;3.70;1.03;;;3.80;99.90;;;;;;4896934;29;20687;-73
2023/12/04 10:00:34;;;;;;;4.70;1.80;;;3.90;99.90;;;;;;4899586;29;20744;-73
2023/12/04 10:03:01;;;;;;;3.43;1.23;;;3.90;99.90;;;;;;4914463;29;20706;-73
2023/12/04 10:05:28;;;;;;;3.13;1.40;;;3.70;99.90;;;;;;4897014;29;20215;-73
2023/12/04 10:07:55;;;;;;;4.13;1.17;;;3.70;99.90;;;;;;4899633;29;20245;-73
2023/12/04 10:10:22;;;;;;;2.67;1.17;;;3.70;99.90;;;;;;4900466;29;20234;-73
2023/12/04 10:12:49;;;;;;;1.53;0.63;;;3.60;99.90;;;;;;4900751;29;20293;-73
2023/12/04 10:15:16;;;;;;;2.50;1.17;;;3.50;99.90;;;;;;4900669;29;20245;-73
2023/12/04 10:17:46;;;;;;;2.53;1.50;;;3.40;99.90;;;;;;4900723;29;20286;-73
2023/12/04 10:20:17;;;;;;;6.93;1.70;;;3.50;99.90;;;;;;4900775;29;20317;-73
2023/12/04 10:22:54;;;;;;;2.70;1.20;;;3.60;99.90;;;;;;4900128;29;20287;-73
2023/12/04 10:25:21;;;;;;;2.70;1.17;;;3.60;99.90;;;;;;4900015;29;20212;-73
2023/12/04 10:27:49;;;;;;;2.43;1.70;;;3.50;99.90;;;;;;4900218;29;20773;-73
2023/12/04 10:30:27;;;;;;;5.13;1.43;;;3.60;99.90;;;;;;4899976;29;20211;-73
2023/12/04 10:33:01;;;;;;;2.37;1.20;;;3.50;99.90;;;;;;4900491;29;20216;-72
2023/12/04 10:35:31;;;;;;;4.17;1.27;;;3.60;99.90;;;;;;4900032;29;20662;-73
2023/12/04 10:37:59;;;;;;;3.23;1.43;;;3.60;99.90;;;;;;4900075;29;20214;-72
2023/12/04 10:40:26;;;;;;;4.70;1.70;;;3.60;99.90;;;;;;4900160;29;20227;-74
2023/12/04 10:43:16;;;;;;;2.27;1.40;;;3.40;99.90;;;;;;4900085;29;20216;-76
2023/12/04 10:45:45;;;;;;;1.57;1.00;;;3.50;99.90;;;;;;4900418;29;20245;-72
2023/12/04 10:48:15;;;;;;;3.13;1.20;;;3.50;99.90;;;;;;4899914;29;20229;-72
2023/12/04 10:50:44;;;;;;;1.70;0.83;;;3.50;99.90;;;;;;4900298;29;20610;-71
2023/12/04 10:53:13;;;;;;;2.90;1.30;;;3.50;99.90;;;;;;4900032;29;20270;-73
2023/12/04 10:55:41;;;;;;;4.60;1.30;;;3.40;99.90;;;;;;4899849;29;20210;-72
2023/12/04 10:58:09;;;;;;;3.60;1.50;;;3.40;99.90;;;;;;4899658;29;20264;-72
2023/12/04 11:00:38;;;;;;;1.30;0.80;;;3.40;99.90;;;;;;4900703;29;20277;-72
2023/12/04 11:03:09;;;;;;;3.17;1.13;;;3.40;99.90;;;;;;4899853;29;20297;-72
2023/12/04 11:05:40;;;;;;;2.87;1.40;;;3.40;99.90;;;;;;4900088;29;20218;-72
2023/12/04 11:08:09;;;;;;;3.53;1.40;;;3.50;99.90;;;;;;4899873;29;20262;-70
2023/12/04 11:10:42;;;;;;;2.53;1.03;;;3.50;99.90;;;;;;4899841;29;20321;-69
2023/12/04 11:13:18;;;;;;;2.73;1.27;;;3.70;99.90;;;;;;4899577;29;20210;-71
2023/12/04 11:15:50;;;;;;;3.40;1.77;;;3.70;99.90;;;;;;4899700;29;20218;-71
2023/12/04 11:18:21;;;;;;;4.50;1.50;;;3.80;99.90;;;;;;4898808;29;20593;-70
2023/12/04 11:20:55;;;;;;;2.27;1.00;;;3.90;99.90;;;;;;4899719;29;20662;-69
2023/12/04 11:23:24;;;;;;;2.27;1.23;;;3.90;99.90;;;;;;4899096;29;20552;-70
2023/12/04 11:25:51;;;;;;;1.23;0.83;;;3.90;99.90;;;;;;4899471;29;20242;-71
2023/12/04 11:28:19;;;;;;;2.70;1.40;;;3.90;99.90;;;;;;4899410;29;20284;-70
2023/12/04 11:30:48;;;;;;;3.17;1.17;;;3.90;99.90;;;;;;4899217;29;20293;-71
2023/12/04 11:33:14;;;;;;;2.10;1.20;;;3.80;99.90;;;;;;4899067;29;20210;-74
2023/12/04 11:35:41;;;;;;;7.13;2.47;;;3.90;99.90;;;;;;4893854;29;20211;-75
2023/12/04 11:38:13;;;;;;;2.87;1.67;;;4.00;99.90;;;;;;4899872;29;20237;-76
2023/12/04 11:40:42;;;;;;;2.63;1.20;;;4.10;99.90;;;;;;4898731;29;20258;-74
2023/12/04 11:43:23;;;;;;;1.33;0.90;;;4.10;99.90;;;;;;4917366;29;20621;-79
2023/12/04 11:45:50;;;;;;;3.63;1.50;;;4.00;99.90;;;;;;4906548;29;20210;-73
2023/12/04 11:48:17;;;;;;;3.90;1.10;;;3.80;99.90;;;;;;4898524;29;20240;-74
2023/12/04 11:50:44;;;;;;;2.47;1.07;;;3.90;99.90;;;;;;4898353;29;20270;-73
2023/12/04 11:53:13;;;;;;;2.33;1.20;;;3.90;99.90;;;;;;4900277;29;20250;-74
2023/12/04 11:55:41;;;;;;;3.03;1.53;;;3.90;99.90;;;;;;4907709;29;20298;-72
2023/12/04 11:58:10;;;;;;;3.20;1.50;;;3.90;99.90;;;;;;4898792;29;20272;-73
2023/12/04 12:00:37;;;;;;;4.43;1.53;;;3.90;99.90;;;;;;4898535;29;20708;-73
2023/12/04 12:03:08;;;;;;;3.20;1.00;;;3.90;99.90;;;;;;4898729;29;20669;-73
2023/12/04 12:05:35;;;;;;;2.93;1.80;;;4.00;99.90;;;;;;4898405;29;20342;-73
2023/12/04 12:08:03;;;;;;;3.50;1.20;;;3.90;99.90;;;;;;4898593;29;20214;-73
2023/12/04 12:10:32;;;;;;;4.23;1.47;;;4.00;99.90;;;;;;4898650;29;20203;-73
2023/12/04 12:12:59;;;;;;;1.43;0.80;;;4.00;99.90;;;;;;4898332;29;20306;-73
2023/12/04 12:15:26;;;;;;;1.90;0.97;;;4.00;99.90;;;;;;4897909;29;20238;-77
2023/12/04 12:17:53;;;;;;;1.47;1.07;;;4.10;99.90;;;;;;4898625;29;20257;-77
2023/12/04 12:20:21;;;;;;;1.77;0.93;;;4.10;99.90;;;;;;4898554;29;20293;-76
2023/12/04 12:22:50;;;;;;;2.33;1.20;;;4.20;99.90;;;;;;4898550;29;20217;-74
2023/12/04 12:25:18;;;;;;;3.17;1.20;;;4.20;99.90;;;;;;4898254;29;20211;-75
2023/12/04 12:27:46;;;;;;;2.27;1.30;;;4.30;99.90;;;;;;4898313;29;20242;-76
2023/12/04 12:30:14;;;;;;;3.30;1.23;;;4.30;99.90;;;;;;4901516;29;20233;-76
2023/12/04 12:32:41;;;;;;;2.50;1.00;;;4.20;99.90;;;;;;4898031;29;20222;-78
2023/12/04 12:35:09;;;;;;;2.20;0.90;;;4.20;99.90;;;;;;4898453;29;20293;-77
2023/12/04 12:37:36;;;;;;;1.40;0.90;;;4.40;99.90;;;;;;4897743;29;20569;-77
2023/12/04 12:40:05;;;;;;;2.50;0.73;;;4.40;99.90;;;;;;4897765;29;20302;-75
2023/12/04 12:42:33;;;;;;;3.10;1.20;;;4.40;99.90;;;;;;4897918;29;20238;-76
2023/12/04 12:45:04;;;;;;;2.60;1.27;;;4.40;99.90;;;;;;4898128;29;20218;-76
2023/12/04 12:47:31;;;;;;;1.80;0.93;;;4.40;99.90;;;;;;4897884;29;20673;-74
2023/12/04 12:49:58;;;;;;;1.17;0.80;;;4.50;99.90;;;;;;4897589;29;20670;-75
2023/12/04 12:52:26;;;;;;;1.70;1.03;;;4.50;99.90;;;;;;4897913;29;20649;-75
2023/12/04 12:54:53;;;;;;;1.43;0.80;;;4.50;99.90;;;;;;4897748;29;20614;-74
2023/12/04 12:57:21;;;;;;;1.33;0.90;;;4.60;99.90;;;;;;4897863;29;20732;-74
2023/12/04 12:59:48;;;;;;;1.97;0.97;;;4.60;99.90;;;;;;4897822;29;20313;-75
2023/12/04 13:02:16;;;;;;;2.40;0.83;;;4.60;99.90;;;;;;4897703;29;20266;-75
2023/12/04 13:04:44;;;;;;;1.93;1.17;;;4.60;99.90;;;;;;4897784;29;20252;-76
2023/12/04 13:07:11;;;;;;;1.37;0.70;;;4.70;99.90;;;;;;4897683;29;20214;-75
2023/12/04 13:09:38;;;;;;;1.20;0.80;;;4.60;99.90;;;;;;4897595;29;20290;-75
2023/12/04 13:12:07;;;;;;;2.27;0.97;;;4.60;99.90;;;;;;4897839;29;20210;-75
2023/12/04 13:14:35;;;;;;;2.07;1.10;;;4.50;99.90;;;;;;4897789;29;20210;-76
2023/12/04 13:17:02;;;;;;;2.43;1.10;;;4.40;99.90;;;;;;4897744;29;20680;-76
2023/12/04 13:19:31;;;;;;;1.60;0.70;;;4.40;99.90;;;;;;4897456;29;20265;-75
2023/12/04 13:21:58;;;;;;;1.33;0.83;;;4.40;99.90;;;;;;4897797;29;20245;-76
2023/12/04 13:24:25;;;;;;;3.13;1.30;;;4.40;99.90;;;;;;4897885;29;20214;-76
2023/12/04 13:26:52;;;;;;;1.97;1.03;;;4.40;99.90;;;;;;4911570;29;20252;-77
2023/12/04 13:29:19;;;;;;;1.73;0.90;;;4.50;99.90;;;;;;4897728;29;20290;-74
2023/12/04 13:31:49;;;;;;;2.80;1.30;;;4.60;99.90;;;;;;4898232;29;20206;-76
2023/12/04 13:34:16;;;;;;;2.07;1.10;;;4.70;99.90;;;;;;4900336;29;20284;-73
2023/12/04 13:36:45;;;;;;;2.27;1.13;;;4.60;99.90;;;;;;4915756;29;20304;-74
2023/12/04 13:39:16;;;;;;;1.37;0.87;;;4.60;99.90;;;;;;4904492;29;20269;-79
2023/12/04 13:44:29;;;;;;;1.60;0.80;;;4.40;99.90;;;;;;4901192;29;20213;-74
2023/12/04 13:46:56;;;;;;;1.80;0.97;;;4.40;99.90;;;;;;4908499;29;20209;-72
2023/12/04 13:49:23;;;;;;;1.17;0.67;;;4.40;99.90;;;;;;4906723;29;20253;-73
2023/12/04 13:51:53;;;;;;;2.17;1.00;;;4.40;99.90;;;;;;4900538;29;20261;-71
2023/12/04 13:54:27;;;;;;;1.73;0.97;;;4.40;99.90;;;;;;4900630;29;20210;-76
2023/12/04 13:56:54;;;;;;;2.27;0.90;;;4.40;99.90;;;;;;4901032;29;20210;-73
2023/12/04 13:59:21;;;;;;;2.20;1.23;;;4.30;99.90;;;;;;4900402;29;20265;-75
2023/12/04 14:01:51;;;;;;;2.37;1.20;;;4.30;99.90;;;;;;4900742;29;20329;-72
2023/12/04 14:04:18;;;;;;;1.17;0.70;;;4.20;99.90;;;;;;4901071;29;20555;-78
2023/12/04 14:06:45;;;;;;;2.37;1.00;;;4.20;99.90;;;;;;4901075;29;20299;-75
2023/12/04 14:09:15;;;;;;;1.77;0.87;;;4.30;99.90;;;;;;4900353;29;20319;-75
2023/12/04 14:11:44;;;;;;;2.93;1.20;;;4.30;99.90;;;;;;4900938;29;20214;-77
2023/12/04 14:14:12;;;;;;;1.73;1.17;;;4.40;99.90;;;;;;4897644;29;20213;-76
2023/12/04 14:16:40;;;;;;;2.27;1.33;;;4.30;99.90;;;;;;4900332;29;20206;-74
2023/12/04 14:19:07;;;;;;;2.47;0.83;;;4.30;99.90;;;;;;4900456;29;20237;-76
2023/12/04 14:21:33;;;;;;;1.57;1.00;;;4.30;99.90;;;;;;4900252;29;20261;-74
2023/12/04 14:24:00;;;;;;;2.80;1.00;;;4.30;99.90;;;;;;4904227;29;20294;-74
2023/12/04 14:26:29;;;;;;;1.57;0.73;;;4.40;99.90;;;;;;4900618;29;20210;-75
2023/12/04 14:28:57;;;;;;;1.50;0.93;;;4.40;99.90;;;;;;4900333;29;20317;-75
2023/12/04 14:31:25;;;;;;;1.10;0.80;;;4.30;99.90;;;;;;4900796;29;20218;-74
2023/12/04 14:33:52;;;;;;;3.40;0.90;;;4.30;99.90;;;;;;4899905;29;20254;-75
2023/12/04 14:36:19;;;;;;;1.80;0.73;;;4.30;99.90;;;;;;4899785;29;20310;-74
2023/12/04 14:38:47;;;;;;;2.60;1.03;;;4.30;99.90;;;;;;4899656;29;20265;-73
2023/12/04 14:41:14;;;;;;;1.23;0.90;;;4.30;99.90;;;;;;4900009;29;20218;-75
2023/12/04 14:43:42;;;;;;;2.20;0.80;;;4.30;99.90;;;;;;4900255;29;20206;-76
2023/12/04 14:46:09;;;;;;;2.00;0.67;;;4.30;99.90;;;;;;4900049;29;20222;-73
2023/12/04 14:48:38;;;;;;;1.37;0.80;;;4.30;99.90;;;;;;4899853;29;20281;-70
2023/12/04 14:51:06;;;;;;;1.57;0.90;;;4.30;99.90;;;;;;4899672;29;20214;-73
2023/12/04 14:53:43;;;;;;;1.67;1.03;;;4.30;99.90;;;;;;4898762;29;20305;-73
2023/12/04 14:57:14;;;;;;;3.00;0.90;;;4.30;99.90;;;;;;4900297;29;20221;-74
2023/12/04 14:59:58;;;;;;;1.47;0.80;;;4.40;99.90;;;;;;4899477;29;20229;-73
2023/12/04 15:10:55;;;;;;;2.00;0.87;;;4.40;99.90;;;;;;4893239;29;20206;-74
2023/12/04 15:13:38;;;;;;;1.93;0.80;;;4.50;99.90;;;;;;4899238;29;20218;-72
2023/12/04 15:16:26;;;;;;;1.87;1.10;;;4.50;99.90;;;;;;4899290;29;21009;-73
2023/12/04 15:19:20;;;;;;;1.50;0.90;;;4.50;99.90;;;;;;4899411;29;20230;-71
2023/12/04 15:21:47;;;;;;;1.37;0.83;;;4.60;99.90;;;;;;4899041;29;20226;-78
2023/12/04 15:24:12;;;;;;;1.77;0.87;;;4.60;99.90;;;;;;4897522;29;20237;-73
2023/12/04 15:26:39;;;;;;;3.10;1.13;;;4.60;99.90;;;;;;4893826;29;20246;-75
2023/12/04 15:29:05;;;;;;;7.53;1.37;;;4.60;99.90;;;;;;4893867;29;20227;-77
2023/12/04 15:31:34;;;;;;;1.53;0.80;;;4.60;99.90;;;;;;4900330;29;20721;-74
2023/12/04 15:33:59;;;;;;;1.80;0.97;;;4.60;99.90;;;;;;4896600;29;20230;-74
2023/12/04 15:36:26;;;;;;;2.17;1.10;;;4.50;99.90;;;;;;4898254;29;20237;-73
2023/12/04 15:38:52;;;;;;;2.13;1.30;;;4.60;99.90;;;;;;4896466;29;20309;-79
2023/12/04 15:41:20;;;;;;;2.10;1.13;;;4.50;99.90;;;;;;4897610;29;20297;-75
2023/12/04 15:43:48;;;;;;;1.53;1.03;;;4.60;99.90;;;;;;4897415;29;20202;-74
2023/12/04 15:46:16;;;;;;;1.97;1.13;;;4.50;99.90;;;;;;4896651;29;20204;-76
2023/12/04 15:48:44;;;;;;;3.23;1.43;;;4.40;99.90;;;;;;4897749;29;20605;-78
2023/12/04 15:51:12;;;;;;;1.73;1.10;;;4.40;99.90;;;;;;4895878;29;20690;-76
2023/12/04 15:53:38;;;;;;;3.00;1.50;;;4.50;99.90;;;;;;4898648;29;20293;-78
2023/12/04 15:56:06;;;;;;;2.07;1.00;;;4.50;99.90;;;;;;4898641;29;20206;-78
2023/12/04 15:58:32;;;;;;;1.37;1.13;;;4.50;99.90;;;;;;4898559;29;20325;-77
2023/12/04 16:00:59;;;;;;;2.07;1.27;;;4.60;99.90;;;;;;4897970;29;20660;-77
2023/12/04 16:03:26;;;;;;;2.10;0.90;;;4.60;99.90;;;;;;4898521;29;20344;-78
2023/12/04 16:05:54;;;;;;;2.80;1.20;;;4.50;99.90;;;;;;4898138;29;20569;-76
2023/12/04 16:08:21;;;;;;;3.00;1.30;;;4.60;99.90;;;;;;4898701;29;20317;-78
2023/12/04 16:10:48;;;;;;;3.17;1.33;;;4.50;99.90;;;;;;4898626;29;20217;-75
2023/12/04 16:13:16;;;;;;;1.20;0.90;;;4.60;99.90;;;;;;4898578;29;20722;-75
2023/12/04 16:15:46;;;;;;;3.23;1.23;;;4.60;99.90;;;;;;4898350;29;20669;-75
2023/12/04 16:18:13;;;;;;;4.17;1.40;;;4.60;99.90;;;;;;4898372;29;20289;-74
2023/12/04 16:20:40;;;;;;;2.07;1.20;;;4.60;99.90;;;;;;4898157;29;20206;-74
2023/12/04 16:23:09;;;;;;;1.60;1.00;;;4.60;99.90;;;;;;4897755;29;20274;-76
2023/12/04 16:25:35;;;;;;;2.43;1.30;;;4.60;99.90;;;;;;4898721;29;20206;-78
2023/12/04 16:28:03;;;;;;;2.23;1.60;;;4.60;99.90;;;;;;4898506;29;20215;-75
2023/12/04 16:30:30;;;;;;;1.60;1.00;;;4.70;99.90;;;;;;4898730;29;20221;-75
2023/12/04 16:32:57;;;;;;;2.97;1.20;;;4.70;99.90;;;;;;4898619;29;20293;-74
2023/12/04 16:35:24;;;;;;;1.40;1.00;;;4.80;99.90;;;;;;4898390;29;20242;-76
2023/12/04 16:37:51;;;;;;;2.37;1.40;;;4.80;99.90;;;;;;4898119;29;20626;-75
2023/12/04 16:40:19;;;;;;;2.30;1.43;;;4.70;99.90;;;;;;4898520;29;20242;-75
2023/12/04 16:42:46;;;;;;;1.50;1.20;;;4.70;99.90;;;;;;4898082;29;20265;-74
2023/12/04 16:45:13;;;;;;;1.93;1.27;;;4.70;99.90;;;;;;4898486;29;20206;-74
2023/12/04 16:47:40;;;;;;;2.10;1.37;;;4.70;99.90;;;;;;4898125;29;20250;-76
2023/12/04 16:50:09;;;;;;;1.70;1.00;;;4.80;99.90;;;;;;4898070;29;20317;-75
2023/12/04 16:52:36;;;;;;;5.57;1.40;;;4.70;99.90;;;;;;4898059;29;20221;-75
2023/12/04 16:55:04;;;;;;;1.87;1.07;;;4.80;99.90;;;;;;4897952;29;20301;-75
2023/12/04 16:57:32;;;;;;;2.30;1.67;;;4.80;99.90;;;;;;4897976;29;20300;-74
2023/12/04 16:59:59;;;;;;;3.00;1.43;;;4.90;99.90;;;;;;4897888;29;20317;-74
2023/12/04 17:02:26;;;;;;;3.10;1.50;;;4.90;99.90;;;;;;4897917;29;20237;-76
2023/12/04 17:04:53;;;;;;;12.23;1.87;;;4.90;99.90;;;;;;4898128;29;20297;-76
2023/12/04 17:07:20;;;;;;;2.13;1.40;;;5.00;99.90;;;;;;4897687;29;20305;-78
2023/12/04 17:09:46;;;;;;;2.87;1.43;;;5.00;99.90;;;;;;4897595;29;20740;-79
2023/12/04 17:12:13;;;;;;;3.03;1.40;;;4.90;99.90;;;;;;4897639;29;20266;-78
2023/12/04 17:14:42;;;;;;;2.00;1.00;;;5.00;99.90;;;;;;4898039;29;20249;-75
2023/12/04 17:17:08;;;;;;;1.47;1.03;;;5.00;99.90;;;;;;4897162;29;20610;-78
2023/12/04 17:19:35;;;;;;;1.63;1.20;;;5.00;99.90;;;;;;4897450;29;20688;-75
2023/12/04 17:22:02;;;;;;;2.13;1.10;;;5.00;99.90;;;;;;4897409;29;20666;-77
2023/12/04 17:24:30;;;;;;;2.03;1.07;;;5.10;99.90;;;;;;4897554;29;20745;-75
2023/12/04 17:26:58;;;;;;;2.20;1.40;;;5.10;99.90;;;;;;4897930;29;20214;-79
2023/12/04 17:29:25;;;;;;;2.10;1.23;;;5.10;99.90;;;;;;4897680;29;20273;-78
2023/12/04 17:31:53;;;;;;;2.77;1.80;;;5.20;99.90;;;;;;4897738;29;20266;-78
2023/12/04 17:34:20;;;;;;;2.60;1.50;;;5.20;99.90;;;;;;4897480;29;20301;-75
2023/12/04 17:36:47;;;;;;;2.33;1.30;;;5.20;99.90;;;;;;4897366;29;20708;-74
2023/12/04 17:39:16;;;;;;;2.43;1.40;;;5.20;99.90;;;;;;4897440;29;20230;-75
2023/12/04 17:41:45;;;;;;;2.40;1.20;;;5.20;99.90;;;;;;4897484;29;20214;-74
2023/12/04 17:44:12;;;;;;;3.67;1.80;;;5.20;99.90;;;;;;4897229;29;20242;-76
2023/12/04 17:46:38;;;;;;;2.10;1.07;;;5.30;99.90;;;;;;4897255;29;20581;-77
2023/12/04 17:49:07;;;;;;;1.40;1.20;;;5.30;99.90;;;;;;4897431;29;20337;-74
2023/12/04 17:51:34;;;;;;;2.57;1.10;;;5.30;99.90;;;;;;4897085;29;20218;-74
2023/12/04 17:54:01;;;;;;;2.80;1.30;;;5.40;99.90;;;;;;4897115;29;20305;-75
2023/12/04 17:56:28;;;;;;;1.70;1.20;;;5.30;99.90;;;;;;4897293;29;20627;-75
2023/12/04 17:58:55;;;;;;;2.03;1.50;;;5.30;99.90;;;;;;4897224;29;20269;-75
2023/12/04 18:01:21;;;;;;;2.40;1.23;;;5.30;99.90;;;;;;4897106;29;20253;-74
2023/12/04 18:03:48;;;;;;;2.07;1.10;;;5.30;99.90;;;;;;4897318;29;20662;-73
2023/12/04 18:06:26;;;;;;;3.87;2.00;;;5.40;99.90;;;;;;4897301;29;20630;-73
2023/12/04 18:08:52;;;;;;;2.13;1.07;;;5.40;99.90;;;;;;4896731;29;20317;-74
2023/12/04 18:11:19;;;;;;;2.57;1.17;;;5.30;99.90;;;;;;4897065;29;20301;-74
2023/12/04 18:13:46;;;;;;;2.17;1.10;;;5.30;99.90;;;;;;4897239;29;20309;-73
2023/12/04 18:16:14;;;;;;;3.10;1.40;;;5.30;99.90;;;;;;4897585;29;20221;-73
2023/12/04 18:18:41;;;;;;;2.87;1.63;;;5.40;99.90;;;;;;4897225;29;20709;-73
2023/12/04 18:21:08;;;;;;;1.93;1.30;;;5.30;99.90;;;;;;4897455;29;20238;-74
2023/12/04 18:23:38;;;;;;;3.20;1.20;;;5.30;99.90;;;;;;4897013;29;20676;-74
2023/12/04 18:26:07;;;;;;;3.47;1.43;;;5.40;99.90;;;;;;4897178;29;20215;-75
2023/12/04 18:28:35;;;;;;;1.93;1.13;;;5.40;99.90;;;;;;4899190;29;20740;-73
2023/12/04 18:31:03;;;;;;;3.03;1.00;;;5.40;99.90;;;;;;4900636;29;20607;-77
2023/12/04 18:33:33;;;;;;;3.83;1.30;;;5.40;99.90;;;;;;4900740;29;20222;-74
2023/12/04 18:36:01;;;;;;;3.57;1.40;;;5.40;99.90;;;;;;4900391;29;20214;-75
2023/12/04 18:38:32;;;;;;;1.97;1.20;;;5.40;99.90;;;;;;4900098;29;20226;-73
2023/12/04 18:41:01;;;;;;;2.13;1.47;;;5.50;99.90;;;;;;4900273;29;20700;-73
2023/12/04 18:43:29;;;;;;;3.20;1.70;;;5.50;99.90;;;;;;4900397;29;20330;-73
2023/12/04 18:45:56;;;;;;;3.97;1.50;;;5.50;99.90;;;;;;4900774;29;20246;-76
2023/12/04 18:48:28;;;;;;;2.47;1.40;;;5.50;99.90;;;;;;4900492;29;20277;-74
2023/12/04 18:50:56;;;;;;;3.70;1.47;;;5.40;99.90;;;;;;4900351;29;20274;-75
2023/12/04 18:53:23;;;;;;;3.03;1.63;;;5.40;99.90;;;;;;4900028;29;20621;-74
2023/12/04 18:55:50;;;;;;;2.47;1.60;;;5.40;99.90;;;;;;4900524;29;20241;-74
2023/12/04 18:58:18;;;;;;;7.03;2.07;;;5.50;99.90;;;;;;4900342;29;20313;-74
2023/12/04 19:00:45;;;;;;;4.17;1.60;;;5.60;99.90;;;;;;4900342;29;20245;-74
2023/12/04 19:03:12;;;;;;;4.00;1.70;;;5.60;99.90;;;;;;4899474;29;20325;-74
2023/12/04 19:05:39;;;;;;;2.03;1.30;;;5.60;99.90;;;;;;4899813;29;20372;-73
2023/12/04 19:08:06;;;;;;;2.77;1.40;;;5.60;99.90;;;;;;4899762;29;20321;-74
2023/12/04 19:10:33;;;;;;;4.77;1.57;;;5.60;99.90;;;;;;4899806;29;20745;-74
2023/12/04 19:13:00;;;;;;;1.60;1.07;;;5.60;99.90;;;;;;4893327;29;20213;-75
2023/12/04 19:15:30;;;;;;;5.00;2.33;;;5.60;99.90;;;;;;4883935;29;20298;-74
2023/12/04 19:17:58;;;;;;;4.27;1.83;;;5.60;99.90;;;;;;4896205;29;20233;-73
2023/12/04 19:20:25;;;;;;;4.87;1.27;;;5.60;99.90;;;;;;4898992;29;20217;-74
2023/12/04 19:22:52;;;;;;;3.93;1.87;;;5.60;99.90;;;;;;4901740;29;20324;-74
2023/12/04 19:25:19;;;;;;;1.73;1.23;;;5.60;99.90;;;;;;4883963;29;20291;-75
2023/12/04 19:27:46;;;;;;;3.63;1.93;;;5.60;99.90;;;;;;4897258;29;20241;-74
2023/12/04 19:30:13;;;;;;;2.90;1.60;;;5.70;99.90;;;;;;4898659;29;20241;-75
2023/12/04 19:32:42;;;;;;;5.03;1.70;;;5.70;99.90;;;;;;4896034;29;20246;-76
2023/12/04 19:35:09;;;;;;;3.20;1.70;;;5.80;99.90;;;;;;4898109;29;20247;-74
2023/12/04 19:37:36;;;;;;;3.07;1.73;;;5.70;99.90;;;;;;4898242;29;20218;-75
2023/12/04 19:40:03;;;;;;;3.40;1.60;;;5.70;99.90;;;;;;4897963;29;20264;-75
2023/12/04 19:42:30;;;;;;;4.10;1.50;;;5.70;99.90;;;;;;4898625;29;20270;-76
2023/12/04 19:44:57;;;;;;;3.23;1.80;;;5.70;99.90;;;;;;4898295;29;20591;-75
2023/12/04 19:47:24;;;;;;;3.23;1.60;;;5.80;99.90;;;;;;4898255;29;20713;-74
2023/12/04 19:49:52;;;;;;;2.47;1.70;;;5.80;99.90;;;;;;4898424;29;20234;-74
2023/12/04 19:52:19;;;;;;;4.17;2.10;;;5.90;99.90;;;;;;4898817;29;20254;-75
2023/12/04 19:54:47;;;;;;;2.83;1.60;;;6.00;99.90;;;;;;4892439;29;20215;-74
2023/12/04 19:57:14;;;;;;;3.40;1.60;;;5.90;99.90;;;;;;4891846;29;20269;-75
2023/12/04 19:59:41;;;;;;;3.20;1.30;;;5.90;99.90;;;;;;4897667;29;20318;-76
2023/12/04 20:02:09;;;;;;;3.93;2.00;;;5.90;99.90;;;;;;4898327;29;20726;-75
2023/12/04 20:04:36;;;;;;;3.90;2.23;;;5.90;99.90;;;;;;4897758;29;20234;-76
2023/12/04 20:07:04;;;;;;;2.77;1.37;;;5.90;99.90;;;;;;4898571;29;20238;-75
2023/12/04 20:09:31;;;;;;;3.50;1.80;;;6.00;99.90;;;;;;4898209;29;20309;-75
2023/12/04 20:11:58;;;;;;;2.60;1.30;;;6.10;99.90;;;;;;4897807;29;20246;-74
2023/12/04 20:14:25;;;;;;;3.27;1.70;;;6.00;99.90;;;;;;4896475;29;20654;-75
2023/12/04 20:16:52;;;;;;;2.87;2.03;;;6.00;99.90;;;;;;4897439;29;20313;-75
2023/12/04 20:19:19;;;;;;;2.33;1.20;;;6.00;99.90;;;;;;4897183;29;20254;-75
2023/12/04 20:21:46;;;;;;;2.80;1.70;;;6.10;99.90;;;;;;4897654;29;20214;-75
2023/12/04 20:24:14;;;;;;;2.33;1.40;;;6.20;99.90;;;;;;4895935;29;20317;-74
2023/12/04 20:26:41;;;;;;;3.03;1.50;;;6.20;99.90;;;;;;4887815;29;20274;-74
2023/12/04 20:29:08;;;;;;;2.83;1.23;;;6.10;99.90;;;;;;4890415;29;20282;-76
2023/12/04 20:31:35;;;;;;;3.60;1.20;;;6.10;99.90;;;;;;4890280;29;20297;-75
2023/12/04 20:34:02;;;;;;;1.73;1.07;;;6.10;99.90;;;;;;4898001;29;20629;-76
2023/12/04 20:36:29;;;;;;;1.93;1.17;;;6.10;99.90;;;;;;4897954;29;20314;-74
2023/12/04 20:38:56;;;;;;;2.00;1.30;;;6.10;99.90;;;;;;4897757;29;20322;-75
2023/12/04 20:41:24;;;;;;;2.23;1.20;;;6.20;99.90;;;;;;4897702;29;20246;-75
2023/12/04 20:43:51;;;;;;;2.23;1.40;;;6.30;99.90;;;;;;4897332;29;20333;-75
2023/12/04 20:46:18;;;;;;;2.33;1.40;;;6.30;99.90;;;;;;4885552;29;20298;-75
2023/12/04 20:48:45;;;;;;;5.00;1.70;;;6.40;99.90;;;;;;4898098;29;20316;-78
2023/12/04 20:51:13;;;;;;;2.83;1.87;;;6.40;99.90;;;;;;4896732;29;20214;-79
2023/12/04 20:53:40;;;;;;;5.07;1.50;;;6.40;99.90;;;;;;4897255;29;20222;-75
2023/12/04 20:56:07;;;;;;;2.57;1.90;;;6.40;99.90;;;;;;4896730;29;20298;-74
2023/12/04 20:58:35;;;;;;;2.83;1.30;;;6.40;99.90;;;;;;4897567;29;20314;-74
2023/12/04 21:01:02;;;;;;;2.57;1.23;;;6.40;99.90;;;;;;4897461;29;20290;-77
2023/12/04 21:03:29;;;;;;;3.03;1.33;;;6.30;99.90;;;;;;4897635;29;20319;-75
2023/12/04 21:05:56;;;;;;;3.43;1.23;;;6.30;99.90;;;;;;4896932;29;20581;-74
2023/12/04 21:08:23;;;;;;;1.80;1.00;;;6.30;99.90;;;;;;4897553;29;20316;-75
2023/12/04 21:10:50;;;;;;;1.50;1.00;;;6.30;99.90;;;;;;4897347;29;20242;-76
2023/12/04 21:13:17;;;;;;;5.63;1.27;;;6.30;99.90;;;;;;4897619;29;20682;-75
2023/12/04 21:15:46;;;;;;;1.87;1.20;;;6.40;99.90;;;;;;4897046;29;20624;-74
2023/12/04 21:18:14;;;;;;;2.70;1.47;;;6.40;99.90;;;;;;4902021;29;20284;-75
2023/12/04 21:20:41;;;;;;;2.60;1.13;;;6.40;99.90;;;;;;4901259;29;20210;-75
2023/12/04 21:23:09;;;;;;;2.07;1.60;;;6.40;99.90;;;;;;4896118;29;20297;-75
2023/12/04 21:25:36;;;;;;;1.73;1.00;;;6.40;99.90;;;;;;4897059;29;20206;-74
2023/12/04 21:28:05;;;;;;;2.40;1.70;;;6.50;99.90;;;;;;4897301;29;20316;-75
2023/12/04 21:30:32;;;;;;;2.37;1.83;;;6.50;99.90;;;;;;4894261;29;20546;-75
2023/12/04 21:33:01;;;;;;;2.10;1.20;;;6.50;99.90;;;;;;4892098;29;20301;-74
2023/12/04 21:35:28;;;;;;;2.00;1.27;;;6.50;99.90;;;;;;4894818;29;20241;-75
2023/12/04 21:37:55;;;;;;;5.00;1.30;;;6.50;99.90;;;;;;4891460;29;20273;-74
2023/12/04 21:40:22;;;;;;;1.47;0.97;;;6.60;99.90;;;;;;4891585;29;20690;-74
2023/12/04 21:42:49;;;;;;;1.17;0.90;;;6.50;99.90;;;;;;4886634;29;20260;-74
2023/12/04 21:45:16;;;;;;;2.80;1.60;;;6.60;99.90;;;;;;4895795;29;20257;-74
2023/12/04 21:47:43;;;;;;;3.83;1.57;;;6.60;99.90;;;;;;4897193;29;20254;-74
2023/12/04 21:50:11;;;;;;;2.40;1.07;;;6.60;99.90;;;;;;4896205;29;20314;-74
2023/12/04 21:52:38;;;;;;;3.33;1.70;;;6.70;99.90;;;;;;4888750;29;20256;-79
2023/12/04 21:55:07;;;;;;;2.27;1.47;;;6.70;99.90;;;;;;4891891;29;20210;-74
2023/12/04 21:57:34;;;;;;;3.50;1.20;;;6.80;99.90;;;;;;4891059;29;20214;-74
2023/12/04 22:00:01;;;;;;;1.70;1.10;;;6.80;99.90;;;;;;4892739;29;20312;-74
2023/12/04 22:02:28;;;;;;;2.07;1.33;;;6.80;99.90;;;;;;4896778;29;20244;-74
2023/12/04 22:04:55;;;;;;;1.63;1.13;;;6.90;99.90;;;;;;4897079;29;20713;-74